sensor_id;sensor_type;location;lat;lon;timestamp;pressure;altitude;pressure_sealevel;temperature;humidity
44103;BME280;29769;42.178;24.742;2022-08-01T00:02:28;99263.91;;;21.35;91.18
44103;BME280;29769;42.178;24.742;2022-08-01T00:05:13;99256.13;;;21.44;90.84
44103;BME280;29769;42.178;24.742;2022-08-01T00:07:57;99260.38;;;21.61;90.22
44103;BME280;29769;42.178;24.742;2022-08-01T00:10:42;99258.97;;;21.68;88.95
44103;BME280;29769;42.178;24.742;2022-08-01T00:13:27;99251.41;;;21.74;88.83
44103;BME280;29769;42.178;24.742;2022-08-01T00:16:12;99246.34;;;21.70;88.57
44103;BME280;29769;42.178;24.742;2022-08-01T00:18:56;99250.16;;;21.53;90.01
44103;BME280;29769;42.178;24.742;2022-08-01T00:21:41;99247.66;;;21.38;91.15
44103;BME280;29769;42.178;24.742;2022-08-01T00:24:25;99247.56;;;21.39;89.92
44103;BME280;29769;42.178;24.742;2022-08-01T00:27:09;99233.16;;;21.67;85.44
44103;BME280;29769;42.178;24.742;2022-08-01T00:29:54;99231.72;;;21.88;82.45
44103;BME280;29769;42.178;24.742;2022-08-01T00:32:38;99225.63;;;21.99;80.84
44103;BME280;29769;42.178;24.742;2022-08-01T00:35:23;99227.34;;;22.00;80.60
44103;BME280;29769;42.178;24.742;2022-08-01T00:38:08;99230.25;;;21.97;80.47
44103;BME280;29769;42.178;24.742;2022-08-01T00:40:52;99236.84;;;21.91;80.47
44103;BME280;29769;42.178;24.742;2022-08-01T00:43:37;99240.16;;;21.82;81.43
44103;BME280;29769;42.178;24.742;2022-08-01T00:46:21;99230.06;;;21.73;81.85
44103;BME280;29769;42.178;24.742;2022-08-01T00:49:06;99246.13;;;21.60;82.85
44103;BME280;29769;42.178;24.742;2022-08-01T00:51:50;99236.03;;;21.51;83.07
44103;BME280;29769;42.178;24.742;2022-08-01T00:54:35;99254.59;;;21.40;84.27
44103;BME280;29769;42.178;24.742;2022-08-01T00:57:19;99258.56;;;21.35;84.47
44103;BME280;29769;42.178;24.742;2022-08-01T01:00:04;99253.06;;;21.23;85.50
44103;BME280;29769;42.178;24.742;2022-08-01T01:02:49;99251.06;;;21.13;86.11
44103;BME280;29769;42.178;24.742;2022-08-01T01:05:36;99251.53;;;21.05;86.78
44103;BME280;29769;42.178;24.742;2022-08-01T01:08:27;99252.91;;;20.98;87.07
44103;BME280;29769;42.178;24.742;2022-08-01T01:11:17;99249.97;;;20.89;87.07
44103;BME280;29769;42.178;24.742;2022-08-01T01:14:08;99251.97;;;20.85;86.75
44103;BME280;29769;42.178;24.742;2022-08-01T01:16:54;99257.88;;;20.90;85.13
44103;BME280;29769;42.178;24.742;2022-08-01T01:19:41;99265.72;;;20.93;83.97
44103;BME280;29769;42.178;24.742;2022-08-01T01:28:27;99251.06;;;20.99;83.52
44103;BME280;29769;42.178;24.742;2022-08-01T01:31:13;99253.94;;;20.96;83.88
44103;BME280;29769;42.178;24.742;2022-08-01T01:34:00;99257.13;;;20.88;84.62
44103;BME280;29769;42.178;24.742;2022-08-01T01:36:47;99257.50;;;20.82;84.97
44103;BME280;29769;42.178;24.742;2022-08-01T01:39:32;99261.63;;;20.73;85.78
44103;BME280;29769;42.178;24.742;2022-08-01T01:42:18;99263.16;;;20.63;86.53
44103;BME280;29769;42.178;24.742;2022-08-01T01:45:03;99263.00;;;20.52;87.70
44103;BME280;29769;42.178;24.742;2022-08-01T01:47:49;99265.19;;;20.46;88.33
44103;BME280;29769;42.178;24.742;2022-08-01T01:50:34;99262.78;;;20.41;88.26
44103;BME280;29769;42.178;24.742;2022-08-01T01:53:20;99255.94;;;20.37;88.68
44103;BME280;29769;42.178;24.742;2022-08-01T01:56:05;99255.25;;;20.33;89.46
44103;BME280;29769;42.178;24.742;2022-08-01T01:58:55;99255.72;;;20.26;90.21
44103;BME280;29769;42.178;24.742;2022-08-01T02:01:40;99264.28;;;20.17;91.28
44103;BME280;29769;42.178;24.742;2022-08-01T02:04:25;99264.00;;;20.07;91.86
44103;BME280;29769;42.178;24.742;2022-08-01T02:07:12;99267.97;;;20.00;92.52
44103;BME280;29769;42.178;24.742;2022-08-01T02:09:58;99268.75;;;20.02;92.21
44103;BME280;29769;42.178;24.742;2022-08-01T02:12:44;99263.47;;;20.01;92.29
44103;BME280;29769;42.178;24.742;2022-08-01T02:15:31;99268.75;;;20.02;92.45
44103;BME280;29769;42.178;24.742;2022-08-01T02:18:17;99272.00;;;20.07;92.19
44103;BME280;29769;42.178;24.742;2022-08-01T02:21:03;99262.06;;;20.09;91.96
44103;BME280;29769;42.178;24.742;2022-08-01T02:23:49;99267.91;;;20.16;91.14
44103;BME280;29769;42.178;24.742;2022-08-01T02:26:34;99259.63;;;20.20;90.42
44103;BME280;29769;42.178;24.742;2022-08-01T02:29:22;99262.63;;;20.30;89.54
44103;BME280;29769;42.178;24.742;2022-08-01T02:32:09;99258.03;;;20.32;89.05
44103;BME280;29769;42.178;24.742;2022-08-01T02:34:57;99251.44;;;20.37;88.06
44103;BME280;29769;42.178;24.742;2022-08-01T02:37:43;99242.28;;;20.41;86.73
44103;BME280;29769;42.178;24.742;2022-08-01T02:40:31;99244.38;;;20.51;85.28
44103;BME280;29769;42.178;24.742;2022-08-01T02:43:18;99249.63;;;20.52;84.32
44103;BME280;29769;42.178;24.742;2022-08-01T02:46:03;99248.00;;;20.50;84.21
44103;BME280;29769;42.178;24.742;2022-08-01T02:48:49;99251.38;;;20.53;83.27
44103;BME280;29769;42.178;24.742;2022-08-01T02:51:35;99264.03;;;20.50;83.68
44103;BME280;29769;42.178;24.742;2022-08-01T02:54:20;99251.91;;;20.58;81.71
44103;BME280;29769;42.178;24.742;2022-08-01T02:57:06;99249.06;;;20.61;81.83
44103;BME280;29769;42.178;24.742;2022-08-01T02:59:51;99253.44;;;20.62;81.54
44103;BME280;29769;42.178;24.742;2022-08-01T03:02:38;99241.13;;;20.60;81.49
44103;BME280;29769;42.178;24.742;2022-08-01T03:05:24;99249.53;;;20.54;81.93
44103;BME280;29769;42.178;24.742;2022-08-01T03:08:09;99246.75;;;20.55;81.98
44103;BME280;29769;42.178;24.742;2022-08-01T03:10:54;99244.59;;;20.48;81.79
44103;BME280;29769;42.178;24.742;2022-08-01T03:13:41;99252.97;;;20.41;82.34
44103;BME280;29769;42.178;24.742;2022-08-01T03:16:26;99252.09;;;20.41;82.06
44103;BME280;29769;42.178;24.742;2022-08-01T03:19:12;99256.50;;;20.42;81.89
44103;BME280;29769;42.178;24.742;2022-08-01T03:21:57;99206.09;;;20.50;80.43
44103;BME280;29769;42.178;24.742;2022-08-01T03:24:43;99232.66;;;20.53;80.06
44103;BME280;29769;42.178;24.742;2022-08-01T03:27:29;99241.41;;;20.55;79.64
44103;BME280;29769;42.178;24.742;2022-08-01T03:30:13;99235.03;;;20.58;79.52
44103;BME280;29769;42.178;24.742;2022-08-01T03:32:59;99231.31;;;20.46;79.99
44103;BME280;29769;42.178;24.742;2022-08-01T03:35:46;99247.41;;;20.59;78.40
44103;BME280;29769;42.178;24.742;2022-08-01T03:38:32;99248.19;;;20.61;78.76
44103;BME280;29769;42.178;24.742;2022-08-01T03:41:19;99235.31;;;20.53;78.78
44103;BME280;29769;42.178;24.742;2022-08-01T03:44:07;99245.31;;;20.50;78.48
44103;BME280;29769;42.178;24.742;2022-08-01T03:46:57;99248.41;;;20.44;79.30
44103;BME280;29769;42.178;24.742;2022-08-01T03:49:43;99248.78;;;20.37;79.52
44103;BME280;29769;42.178;24.742;2022-08-01T03:52:29;99242.00;;;20.32;80.13
44103;BME280;29769;42.178;24.742;2022-08-01T03:55:14;99250.25;;;20.27;81.15
44103;BME280;29769;42.178;24.742;2022-08-01T03:58:01;99244.16;;;20.25;81.21
44103;BME280;29769;42.178;24.742;2022-08-01T04:00:48;99252.06;;;20.27;81.30
44103;BME280;29769;42.178;24.742;2022-08-01T04:03:32;99249.50;;;20.25;82.02
44103;BME280;29769;42.178;24.742;2022-08-01T04:06:17;99252.06;;;20.27;82.09
44103;BME280;29769;42.178;24.742;2022-08-01T04:09:02;99258.28;;;20.27;82.34
44103;BME280;29769;42.178;24.742;2022-08-01T04:11:47;99254.47;;;20.31;81.16
44103;BME280;29769;42.178;24.742;2022-08-01T04:14:32;99252.31;;;20.38;80.86
44103;BME280;29769;42.178;24.742;2022-08-01T04:17:17;99255.34;;;20.46;79.75
44103;BME280;29769;42.178;24.742;2022-08-01T04:20:02;99246.84;;;20.54;78.54
44103;BME280;29769;42.178;24.742;2022-08-01T04:22:46;99260.19;;;20.68;77.41
44103;BME280;29769;42.178;24.742;2022-08-01T04:25:34;99245.97;;;20.81;75.54
44103;BME280;29769;42.178;24.742;2022-08-01T04:28:20;99245.28;;;20.92;74.51
44103;BME280;29769;42.178;24.742;2022-08-01T04:31:08;99258.06;;;21.01;74.35
44103;BME280;29769;42.178;24.742;2022-08-01T04:33:56;99255.53;;;21.12;74.25
44103;BME280;29769;42.178;24.742;2022-08-01T04:36:41;99257.09;;;21.16;73.15
44103;BME280;29769;42.178;24.742;2022-08-01T04:39:28;99260.78;;;21.28;73.02
44103;BME280;29769;42.178;24.742;2022-08-01T04:42:15;99258.66;;;21.33;72.00
44103;BME280;29769;42.178;24.742;2022-08-01T04:45:00;99253.00;;;21.38;70.91
44103;BME280;29769;42.178;24.742;2022-08-01T04:47:46;99247.44;;;21.41;69.07
44103;BME280;29769;42.178;24.742;2022-08-01T04:50:32;99253.91;;;21.51;69.00
44103;BME280;29769;42.178;24.742;2022-08-01T04:53:18;99257.78;;;21.59;66.99
44103;BME280;29769;42.178;24.742;2022-08-01T04:56:03;99250.53;;;21.61;67.16
44103;BME280;29769;42.178;24.742;2022-08-01T04:58:47;99259.84;;;21.68;67.47
44103;BME280;29769;42.178;24.742;2022-08-01T05:01:32;99253.44;;;21.71;66.89
44103;BME280;29769;42.178;24.742;2022-08-01T05:04:17;99254.41;;;21.83;66.72
44103;BME280;29769;42.178;24.742;2022-08-01T05:07:01;99260.00;;;21.92;66.09
44103;BME280;29769;42.178;24.742;2022-08-01T05:09:46;99254.69;;;22.05;65.81
44103;BME280;29769;42.178;24.742;2022-08-01T05:12:31;99246.97;;;22.13;64.19
44103;BME280;29769;42.178;24.742;2022-08-01T05:15:16;99248.91;;;22.24;64.18
44103;BME280;29769;42.178;24.742;2022-08-01T05:18:00;99256.41;;;22.31;63.76
44103;BME280;29769;42.178;24.742;2022-08-01T05:20:45;99253.75;;;22.44;64.03
44103;BME280;29769;42.178;24.742;2022-08-01T05:23:29;99259.59;;;22.49;63.14
44103;BME280;29769;42.178;24.742;2022-08-01T05:26:14;99241.84;;;22.48;62.38
44103;BME280;29769;42.178;24.742;2022-08-01T05:28:59;99245.22;;;22.62;62.32
44103;BME280;29769;42.178;24.742;2022-08-01T05:31:43;99249.41;;;22.67;61.29
44103;BME280;29769;42.178;24.742;2022-08-01T05:34:28;99247.59;;;22.80;59.18
44103;BME280;29769;42.178;24.742;2022-08-01T05:37:12;99231.25;;;22.95;57.87
44103;BME280;29769;42.178;24.742;2022-08-01T05:39:57;99251.63;;;22.98;57.31
44103;BME280;29769;42.178;24.742;2022-08-01T05:42:41;99247.41;;;23.07;57.52
44103;BME280;29769;42.178;24.742;2022-08-01T05:45:26;99242.50;;;23.00;57.04
44103;BME280;29769;42.178;24.742;2022-08-01T05:48:11;99232.81;;;23.11;53.92
44103;BME280;29769;42.178;24.742;2022-08-01T05:50:55;99227.44;;;23.11;52.57
44103;BME280;29769;42.178;24.742;2022-08-01T05:53:39;99247.59;;;23.16;53.75
44103;BME280;29769;42.178;24.742;2022-08-01T05:56:24;99228.38;;;23.46;52.38
44103;BME280;29769;42.178;24.742;2022-08-01T05:59:09;99241.84;;;23.57;50.05
44103;BME280;29769;42.178;24.742;2022-08-01T06:01:55;99216.84;;;23.68;49.24
44103;BME280;29769;42.178;24.742;2022-08-01T06:04:40;99238.97;;;23.71;48.10
44103;BME280;29769;42.178;24.742;2022-08-01T06:07:24;99243.41;;;23.83;49.06
44103;BME280;29769;42.178;24.742;2022-08-01T06:10:09;99245.09;;;23.73;47.78
44103;BME280;29769;42.178;24.742;2022-08-01T06:12:54;99250.97;;;23.78;48.03
44103;BME280;29769;42.178;24.742;2022-08-01T06:15:39;99222.66;;;23.85;47.06
44103;BME280;29769;42.178;24.742;2022-08-01T06:18:24;99244.78;;;24.00;47.39
44103;BME280;29769;42.178;24.742;2022-08-01T06:21:08;99235.66;;;24.14;46.51
44103;BME280;29769;42.178;24.742;2022-08-01T06:23:53;99237.53;;;24.35;45.57
44103;BME280;29769;42.178;24.742;2022-08-01T06:26:37;99216.44;;;24.42;44.33
44103;BME280;29769;42.178;24.742;2022-08-01T06:29:22;99224.72;;;24.50;43.84
44103;BME280;29769;42.178;24.742;2022-08-01T06:32:06;99209.94;;;24.45;43.79
44103;BME280;29769;42.178;24.742;2022-08-01T06:34:52;99224.00;;;24.59;43.70
44103;BME280;29769;42.178;24.742;2022-08-01T06:37:36;99211.03;;;24.75;42.33
44103;BME280;29769;42.178;24.742;2022-08-01T06:40:21;99198.78;;;25.05;41.98
44103;BME280;29769;42.178;24.742;2022-08-01T06:43:06;99217.88;;;25.02;41.60
44103;BME280;29769;42.178;24.742;2022-08-01T06:45:51;99210.69;;;25.34;41.24
44103;BME280;29769;42.178;24.742;2022-08-01T06:48:35;99198.69;;;25.27;40.09
44103;BME280;29769;42.178;24.742;2022-08-01T06:51:23;99186.16;;;25.48;39.42
44103;BME280;29769;42.178;24.742;2022-08-01T06:54:08;99199.06;;;25.65;40.44
44103;BME280;29769;42.178;24.742;2022-08-01T06:56:53;99202.81;;;25.95;38.59
44103;BME280;29769;42.178;24.742;2022-08-01T06:59:37;99199.78;;;25.88;38.77
44103;BME280;29769;42.178;24.742;2022-08-01T07:02:22;99198.66;;;26.11;38.50
44103;BME280;29769;42.178;24.742;2022-08-01T07:05:07;99198.09;;;25.87;38.09
44103;BME280;29769;42.178;24.742;2022-08-01T07:07:52;99186.63;;;26.16;37.77
44103;BME280;29769;42.178;24.742;2022-08-01T07:10:36;99184.56;;;26.08;37.32
44103;BME280;29769;42.178;24.742;2022-08-01T07:13:21;99170.44;;;26.36;37.24
44103;BME280;29769;42.178;24.742;2022-08-01T07:16:09;99185.09;;;26.53;36.84
44103;BME280;29769;42.178;24.742;2022-08-01T07:18:54;99157.69;;;26.38;36.53
44103;BME280;29769;42.178;24.742;2022-08-01T07:21:38;99178.31;;;26.59;36.34
44103;BME280;29769;42.178;24.742;2022-08-01T07:24:23;99179.13;;;26.49;36.32
44103;BME280;29769;42.178;24.742;2022-08-01T07:27:08;99176.91;;;27.04;36.31
44103;BME280;29769;42.178;24.742;2022-08-01T07:29:52;99152.34;;;26.97;35.06
44103;BME280;29769;42.178;24.742;2022-08-01T07:32:36;99161.16;;;27.09;34.52
44103;BME280;29769;42.178;24.742;2022-08-01T07:35:21;99163.41;;;27.04;35.04
44103;BME280;29769;42.178;24.742;2022-08-01T07:38:06;99162.00;;;27.19;33.74
44103;BME280;29769;42.178;24.742;2022-08-01T07:40:51;99142.56;;;27.54;33.53
44103;BME280;29769;42.178;24.742;2022-08-01T07:43:36;99148.91;;;27.82;33.12
44103;BME280;29769;42.178;24.742;2022-08-01T07:46:21;99141.88;;;27.52;33.11
44103;BME280;29769;42.178;24.742;2022-08-01T07:49:06;99164.53;;;27.98;32.34
44103;BME280;29769;42.178;24.742;2022-08-01T07:51:50;99162.53;;;28.00;32.67
44103;BME280;29769;42.178;24.742;2022-08-01T07:54:35;99133.44;;;27.74;33.36
44103;BME280;29769;42.178;24.742;2022-08-01T07:57:19;99159.41;;;27.95;33.44
44103;BME280;29769;42.178;24.742;2022-08-01T08:00:05;99157.00;;;29.02;32.41
44103;BME280;29769;42.178;24.742;2022-08-01T08:02:50;99153.16;;;28.78;31.68
44103;BME280;29769;42.178;24.742;2022-08-01T08:05:35;99165.16;;;28.38;32.16
44103;BME280;29769;42.178;24.742;2022-08-01T08:08:20;99106.69;;;28.55;32.26
44103;BME280;29769;42.178;24.742;2022-08-01T08:11:05;99119.91;;;28.58;31.81
44103;BME280;29769;42.178;24.742;2022-08-01T08:13:49;99119.00;;;28.67;31.60
44103;BME280;29769;42.178;24.742;2022-08-01T08:16:34;99133.84;;;29.26;30.92
44103;BME280;29769;42.178;24.742;2022-08-01T08:19:19;99152.22;;;29.32;31.01
44103;BME280;29769;42.178;24.742;2022-08-01T08:22:04;99140.50;;;29.84;30.07
44103;BME280;29769;42.178;24.742;2022-08-01T08:24:48;99105.03;;;29.34;30.59
44103;BME280;29769;42.178;24.742;2022-08-01T08:27:32;99130.53;;;28.42;31.61
44103;BME280;29769;42.178;24.742;2022-08-01T08:30:17;99107.16;;;28.13;31.78
44103;BME280;29769;42.178;24.742;2022-08-01T08:33:01;99140.84;;;28.28;31.99
44103;BME280;29769;42.178;24.742;2022-08-01T08:35:46;99141.44;;;28.50;32.12
44103;BME280;29769;42.178;24.742;2022-08-01T08:38:30;99116.97;;;28.51;31.91
44103;BME280;29769;42.178;24.742;2022-08-01T08:41:15;99143.66;;;28.37;32.05
44103;BME280;29769;42.178;24.742;2022-08-01T08:44:03;99142.16;;;29.06;32.13
44103;BME280;29769;42.178;24.742;2022-08-01T08:46:49;99127.97;;;28.95;31.24
44103;BME280;29769;42.178;24.742;2022-08-01T08:49:35;99140.28;;;29.60;31.02
44103;BME280;29769;42.178;24.742;2022-08-01T08:52:20;99109.25;;;29.01;31.08
44103;BME280;29769;42.178;24.742;2022-08-01T08:55:05;99141.06;;;29.70;31.10
44103;BME280;29769;42.178;24.742;2022-08-01T08:57:50;99129.38;;;30.21;30.26
44103;BME280;29769;42.178;24.742;2022-08-01T09:00:35;99115.75;;;29.62;30.79
44103;BME280;29769;42.178;24.742;2022-08-01T09:03:20;99099.38;;;29.71;30.48
44103;BME280;29769;42.178;24.742;2022-08-01T09:06:05;99131.41;;;30.53;29.98
44103;BME280;29769;42.178;24.742;2022-08-01T09:08:50;99115.72;;;30.81;29.10
44103;BME280;29769;42.178;24.742;2022-08-01T09:11:35;99114.38;;;30.77;29.00
44103;BME280;29769;42.178;24.742;2022-08-01T09:14:20;99133.97;;;30.55;29.61
44103;BME280;29769;42.178;24.742;2022-08-01T09:17:15;99120.88;;;30.16;30.13
44103;BME280;29769;42.178;24.742;2022-08-01T09:20:01;99124.25;;;30.10;29.99
44103;BME280;29769;42.178;24.742;2022-08-01T09:22:45;99101.94;;;31.24;28.92
44103;BME280;29769;42.178;24.742;2022-08-01T09:25:30;99107.59;;;30.81;28.92
44103;BME280;29769;42.178;24.742;2022-08-01T09:28:18;99118.59;;;31.38;28.53
44103;BME280;29769;42.178;24.742;2022-08-01T09:31:12;99104.97;;;31.94;28.19
44103;BME280;29769;42.178;24.742;2022-08-01T09:33:57;99093.78;;;31.41;28.32
44103;BME280;29769;42.178;24.742;2022-08-01T09:36:43;99082.56;;;31.68;28.39
44103;BME280;29769;42.178;24.742;2022-08-01T09:39:29;99087.47;;;31.97;27.73
44103;BME280;29769;42.178;24.742;2022-08-01T09:42:22;99101.56;;;32.00;27.66
44103;BME280;29769;42.178;24.742;2022-08-01T09:45:07;99040.28;;;32.29;27.75
44103;BME280;29769;42.178;24.742;2022-08-01T09:47:52;99100.41;;;31.78;27.98
44103;BME280;29769;42.178;24.742;2022-08-01T09:50:47;99061.34;;;31.23;28.47
44103;BME280;29769;42.178;24.742;2022-08-01T09:53:47;99089.31;;;32.04;28.07
44103;BME280;29769;42.178;24.742;2022-08-01T09:56:36;99100.50;;;32.17;28.06
44103;BME280;29769;42.178;24.742;2022-08-01T09:59:21;99059.88;;;32.55;26.81
44103;BME280;29769;42.178;24.742;2022-08-01T10:02:05;99083.41;;;31.76;27.60
44103;BME280;29769;42.178;24.742;2022-08-01T10:04:50;99078.84;;;32.71;26.39
44103;BME280;29769;42.178;24.742;2022-08-01T10:07:36;99089.75;;;33.02;26.62
44103;BME280;29769;42.178;24.742;2022-08-01T10:10:38;99088.25;;;33.45;25.75
44103;BME280;29769;42.178;24.742;2022-08-01T10:13:23;99075.28;;;33.70;25.18
44103;BME280;29769;42.178;24.742;2022-08-01T10:16:07;99085.66;;;34.04;25.37
44103;BME280;29769;42.178;24.742;2022-08-01T10:18:54;99065.16;;;33.10;26.28
44103;BME280;29769;42.178;24.742;2022-08-01T10:21:38;99072.22;;;32.74;26.15
44103;BME280;29769;42.178;24.742;2022-08-01T10:24:23;99065.28;;;32.24;27.84
44103;BME280;29769;42.178;24.742;2022-08-01T10:27:08;99073.97;;;32.89;27.06
44103;BME280;29769;42.178;24.742;2022-08-01T10:29:57;99070.72;;;32.94;26.50
44103;BME280;29769;42.178;24.742;2022-08-01T10:32:45;99084.41;;;33.77;25.94
44103;BME280;29769;42.178;24.742;2022-08-01T10:35:30;99083.75;;;33.06;26.40
44103;BME280;29769;42.178;24.742;2022-08-01T10:38:15;99072.28;;;32.66;26.72
44103;BME280;29769;42.178;24.742;2022-08-01T10:41:02;99057.44;;;32.68;26.72
44103;BME280;29769;42.178;24.742;2022-08-01T10:43:46;99089.63;;;34.01;25.98
44103;BME280;29769;42.178;24.742;2022-08-01T10:46:31;99091.75;;;33.91;25.54
44103;BME280;29769;42.178;24.742;2022-08-01T10:49:16;99081.06;;;32.37;27.14
44103;BME280;29769;42.178;24.742;2022-08-01T10:52:01;99078.53;;;33.65;25.73
44103;BME280;29769;42.178;24.742;2022-08-01T10:54:47;99055.53;;;33.45;26.45
44103;BME280;29769;42.178;24.742;2022-08-01T10:57:41;99062.16;;;33.28;26.04
44103;BME280;29769;42.178;24.742;2022-08-01T11:00:26;99080.84;;;34.64;24.47
44103;BME280;29769;42.178;24.742;2022-08-01T11:03:11;99065.72;;;35.19;24.14
44103;BME280;29769;42.178;24.742;2022-08-01T11:05:56;99083.97;;;35.82;23.75
44103;BME280;29769;42.178;24.742;2022-08-01T11:08:40;99067.66;;;36.30;23.05
44103;BME280;29769;42.178;24.742;2022-08-01T11:11:26;99044.16;;;35.52;23.56
44103;BME280;29769;42.178;24.742;2022-08-01T11:14:11;99022.69;;;34.05;25.09
44103;BME280;29769;42.178;24.742;2022-08-01T11:17:25;99039.28;;;34.84;24.27
44103;BME280;29769;42.178;24.742;2022-08-01T11:20:05;99058.31;;;34.77;24.74
44103;BME280;29769;42.178;24.742;2022-08-01T11:28:30;99054.69;;;34.91;24.15
44103;BME280;29769;42.178;24.742;2022-08-01T11:34:00;99049.03;;;35.35;23.59
44103;BME280;29769;42.178;24.742;2022-08-01T11:36:45;99040.00;;;35.62;23.24
44103;BME280;29769;42.178;24.742;2022-08-01T11:39:29;98983.75;;;34.11;24.11
44103;BME280;29769;42.178;24.742;2022-08-01T11:42:17;99029.56;;;34.16;25.15
44103;BME280;29769;42.178;24.742;2022-08-01T11:45:02;99048.94;;;34.35;24.43
44103;BME280;29769;42.178;24.742;2022-08-01T11:47:48;99042.91;;;35.12;23.92
44103;BME280;29769;42.178;24.742;2022-08-01T11:50:36;99010.28;;;34.32;24.37
44103;BME280;29769;42.178;24.742;2022-08-01T11:53:21;99049.47;;;34.75;24.33
44103;BME280;29769;42.178;24.742;2022-08-01T11:56:06;99043.13;;;35.10;23.67
44103;BME280;29769;42.178;24.742;2022-08-01T11:58:58;99038.50;;;34.10;24.63
44103;BME280;29769;42.178;24.742;2022-08-01T12:01:43;99031.47;;;33.03;26.41
44103;BME280;29769;42.178;24.742;2022-08-01T12:04:43;99019.47;;;34.16;24.99
44103;BME280;29769;42.178;24.742;2022-08-01T12:07:29;99034.44;;;34.35;24.26
44103;BME280;29769;42.178;24.742;2022-08-01T12:10:15;99037.38;;;35.20;23.67
44103;BME280;29769;42.178;24.742;2022-08-01T12:13:00;99029.91;;;35.84;23.16
44103;BME280;29769;42.178;24.742;2022-08-01T12:15:45;99028.59;;;35.80;23.30
44103;BME280;29769;42.178;24.742;2022-08-01T12:18:37;99016.25;;;34.93;23.64
44103;BME280;29769;42.178;24.742;2022-08-01T12:21:21;99010.94;;;35.12;23.32
44103;BME280;29769;42.178;24.742;2022-08-01T12:24:06;99023.72;;;35.48;23.41
44103;BME280;29769;42.178;24.742;2022-08-01T12:26:51;99033.94;;;35.88;23.07
44103;BME280;29769;42.178;24.742;2022-08-01T12:29:37;99003.38;;;36.19;22.86
44103;BME280;29769;42.178;24.742;2022-08-01T12:32:24;99012.34;;;35.23;23.60
44103;BME280;29769;42.178;24.742;2022-08-01T12:37:54;99014.09;;;34.88;24.36
44103;BME280;29769;42.178;24.742;2022-08-01T12:40:43;99020.50;;;33.57;25.31
44103;BME280;29769;42.178;24.742;2022-08-01T12:43:28;99014.72;;;32.91;25.84
44103;BME280;29769;42.178;24.742;2022-08-01T12:46:15;99006.56;;;34.39;24.89
44103;BME280;29769;42.178;24.742;2022-08-01T12:49:01;99010.81;;;34.99;24.21
44103;BME280;29769;42.178;24.742;2022-08-01T12:51:46;99009.22;;;34.48;24.40
44103;BME280;29769;42.178;24.742;2022-08-01T12:54:59;99008.03;;;33.39;25.98
44103;BME280;29769;42.178;24.742;2022-08-01T12:57:36;99011.31;;;34.31;24.74
44103;BME280;29769;42.178;24.742;2022-08-01T13:00:22;99010.78;;;34.93;24.28
44103;BME280;29769;42.178;24.742;2022-08-01T13:03:09;99014.16;;;34.73;24.21
44103;BME280;29769;42.178;24.742;2022-08-01T13:05:54;99006.97;;;34.36;24.61
44103;BME280;29769;42.178;24.742;2022-08-01T13:08:39;99006.38;;;34.56;24.76
44103;BME280;29769;42.178;24.742;2022-08-01T13:11:24;98992.72;;;34.98;23.89
44103;BME280;29769;42.178;24.742;2022-08-01T13:14:10;99006.63;;;35.67;23.63
44103;BME280;29769;42.178;24.742;2022-08-01T13:17:10;99006.16;;;36.99;22.07
44103;BME280;29769;42.178;24.742;2022-08-01T13:19:55;98980.50;;;35.64;23.40
44103;BME280;29769;42.178;24.742;2022-08-01T13:22:39;99003.63;;;34.56;24.54
44103;BME280;29769;42.178;24.742;2022-08-01T13:25:24;99001.63;;;35.49;23.51
44103;BME280;29769;42.178;24.742;2022-08-01T13:28:19;99001.69;;;36.18;22.81
44103;BME280;29769;42.178;24.742;2022-08-01T13:31:05;98994.97;;;36.81;21.79
44103;BME280;29769;42.178;24.742;2022-08-01T13:33:49;98991.09;;;36.56;21.91
44103;BME280;29769;42.178;24.742;2022-08-01T13:36:34;98993.84;;;35.74;22.72
44103;BME280;29769;42.178;24.742;2022-08-01T13:39:18;98984.69;;;34.69;23.91
44103;BME280;29769;42.178;24.742;2022-08-01T13:42:22;98987.16;;;35.06;23.79
44103;BME280;29769;42.178;24.742;2022-08-01T13:45:07;98983.50;;;34.78;23.83
44103;BME280;29769;42.178;24.742;2022-08-01T13:47:54;98994.00;;;34.24;24.52
44103;BME280;29769;42.178;24.742;2022-08-01T13:50:40;98995.09;;;35.01;24.22
44103;BME280;29769;42.178;24.742;2022-08-01T13:53:26;98977.69;;;34.66;24.13
44103;BME280;29769;42.178;24.742;2022-08-01T13:56:10;98983.06;;;34.74;23.96
44103;BME280;29769;42.178;24.742;2022-08-01T13:58:55;98996.00;;;34.87;24.21
44103;BME280;29769;42.178;24.742;2022-08-01T14:01:40;98987.44;;;34.54;24.63
44103;BME280;29769;42.178;24.742;2022-08-01T14:04:25;98991.00;;;35.95;22.90
44103;BME280;29769;42.178;24.742;2022-08-01T14:07:10;98988.03;;;36.92;21.96
44103;BME280;29769;42.178;24.742;2022-08-01T14:09:55;98988.50;;;37.61;21.12
44103;BME280;29769;42.178;24.742;2022-08-01T14:12:39;98979.38;;;35.87;22.81
44103;BME280;29769;42.178;24.742;2022-08-01T14:15:24;98990.25;;;35.46;23.17
44103;BME280;29769;42.178;24.742;2022-08-01T14:18:09;99004.66;;;35.33;23.46
44103;BME280;29769;42.178;24.742;2022-08-01T14:20:53;98999.91;;;35.70;23.42
44103;BME280;29769;42.178;24.742;2022-08-01T14:23:38;98985.09;;;35.92;22.91
44103;BME280;29769;42.178;24.742;2022-08-01T14:26:22;98985.16;;;36.46;22.47
44103;BME280;29769;42.178;24.742;2022-08-01T14:29:07;98988.09;;;35.41;23.36
44103;BME280;29769;42.178;24.742;2022-08-01T14:31:51;98993.41;;;35.49;23.68
44103;BME280;29769;42.178;24.742;2022-08-01T14:34:36;98998.88;;;35.00;23.72
44103;BME280;29769;42.178;24.742;2022-08-01T14:37:20;99000.53;;;35.16;23.95
44103;BME280;29769;42.178;24.742;2022-08-01T14:40:05;99003.34;;;35.08;24.13
44103;BME280;29769;42.178;24.742;2022-08-01T14:42:53;99010.09;;;35.12;24.08
44103;BME280;29769;42.178;24.742;2022-08-01T14:45:37;99001.47;;;35.85;23.00